createdAt,value
2019-06-08T00:00:24.515Z,0.00
2019-06-08T00:01:24.537Z,0.00
2019-06-08T00:02:24.563Z,0.00
2019-06-08T00:03:24.592Z,0.00
2019-06-08T00:04:24.606Z,0.00
2019-06-08T00:05:24.630Z,0.00
2019-06-08T00:06:24.663Z,0.00
2019-06-08T00:07:24.675Z,0.00
2019-06-08T00:08:24.701Z,0.00
2019-06-08T00:09:24.720Z,0.00
2019-06-08T00:10:25.860Z,0.00
2019-06-08T00:11:24.765Z,0.00
2019-06-08T00:12:24.788Z,0.00
2019-06-08T00:13:24.810Z,0.00
2019-06-08T00:14:25.578Z,0.00
2019-06-08T00:15:24.856Z,0.00
2019-06-08T00:16:24.882Z,0.00
2019-06-08T00:17:37.744Z,0.00
2019-06-08T00:18:24.924Z,0.00
2019-06-08T00:19:24.949Z,0.00
2019-06-08T00:20:24.969Z,0.00
2019-06-08T00:21:24.993Z,0.00
2019-06-08T00:22:25.014Z,0.00
2019-06-08T00:23:25.037Z,0.00
2019-06-08T00:24:25.061Z,0.00
2019-06-08T00:25:25.089Z,0.00
2019-06-08T00:26:25.107Z,0.00
2019-06-08T00:27:25.129Z,0.00
2019-06-08T00:28:25.152Z,0.00
2019-06-08T00:29:25.175Z,0.00
2019-06-08T00:30:25.196Z,0.00
2019-06-08T00:31:25.221Z,0.00
2019-06-08T00:32:25.240Z,0.00
2019-06-08T00:33:25.263Z,0.00
2019-06-08T00:34:25.293Z,0.00
2019-06-08T00:35:25.309Z,0.00
2019-06-08T00:36:25.332Z,0.00
2019-06-08T00:37:25.355Z,0.00
2019-06-08T00:38:25.376Z,0.00
2019-06-08T00:39:25.402Z,0.00
2019-06-08T00:40:25.422Z,0.00
2019-06-08T00:41:25.516Z,0.00
2019-06-08T00:42:25.594Z,0.00
2019-06-08T00:43:25.576Z,0.00
2019-06-08T00:44:25.694Z,0.00
2019-06-08T00:45:25.675Z,0.00
2019-06-08T00:46:25.683Z,0.00
2019-06-08T00:47:26.778Z,0.00
2019-06-08T00:48:25.603Z,0.00
2019-06-08T00:49:25.627Z,0.00
2019-06-08T00:50:25.652Z,0.00
2019-06-08T00:51:25.683Z,0.00
2019-06-08T00:52:25.693Z,0.00
2019-06-08T00:53:25.716Z,0.00
2019-06-08T00:54:25.883Z,0.00
2019-06-08T00:55:25.771Z,0.00
2019-06-08T00:56:26.057Z,0.00
2019-06-08T00:57:26.045Z,0.00
2019-06-08T00:58:26.391Z,0.00
2019-06-08T00:59:26.185Z,0.00
2019-06-08T01:00:26.721Z,0.00
2019-06-08T01:01:27.805Z,0.00
2019-06-08T01:02:26.832Z,0.00
2019-06-08T01:03:25.942Z,0.00
2019-06-08T01:04:26.953Z,0.00
2019-06-08T01:05:26.080Z,0.00
2019-06-08T01:06:27.395Z,0.00
2019-06-08T01:07:26.302Z,0.00
2019-06-08T01:08:27.373Z,0.00
2019-06-08T01:09:26.318Z,0.00
2019-06-08T01:10:27.473Z,0.00
2019-06-08T01:11:26.924Z,0.00
2019-06-08T01:12:26.794Z,0.00
2019-06-08T01:13:26.934Z,0.00
2019-06-08T01:14:27.070Z,0.00
2019-06-08T01:15:31.999Z,0.00
2019-06-08T01:16:27.026Z,0.00
2019-06-08T01:17:27.291Z,0.00
2019-06-08T01:18:27.363Z,0.00
2019-06-08T01:19:27.250Z,0.00
2019-06-08T01:20:27.353Z,0.00
2019-06-08T01:21:27.566Z,0.00
2019-06-08T01:22:27.617Z,0.00
2019-06-08T01:23:27.781Z,0.00
2019-06-08T01:24:27.814Z,0.00
2019-06-08T01:25:27.903Z,0.00
2019-06-08T01:26:26.467Z,0.00
2019-06-08T01:27:26.489Z,0.00
2019-06-08T01:28:26.513Z,0.00
2019-06-08T01:29:26.541Z,0.00
2019-06-08T01:30:26.555Z,0.00
2019-06-08T01:31:26.668Z,0.00
2019-06-08T01:32:26.604Z,0.00
2019-06-08T01:33:26.691Z,0.00
2019-06-08T01:34:27.018Z,0.00
2019-06-08T01:35:26.891Z,0.00
2019-06-08T01:36:27.533Z,0.00
2019-06-08T01:37:27.032Z,0.00
2019-06-08T01:38:27.187Z,0.00
2019-06-08T01:39:27.280Z,0.00
2019-06-08T01:40:27.473Z,0.00
2019-06-08T01:41:27.725Z,0.00
2019-06-08T01:42:27.688Z,0.00
2019-06-08T01:43:27.756Z,0.00
2019-06-08T01:44:27.956Z,0.00
2019-06-08T01:45:27.899Z,0.00
2019-06-08T01:46:28.082Z,0.00
2019-06-08T01:47:28.136Z,0.00
2019-06-08T01:48:28.133Z,0.00
2019-06-08T01:49:28.331Z,0.00
2019-06-08T01:50:27.015Z,0.00
2019-06-08T01:51:27.040Z,0.00
2019-06-08T01:52:27.060Z,0.00
2019-06-08T01:53:27.083Z,0.00
2019-06-08T01:54:27.111Z,0.00
2019-06-08T01:55:27.132Z,0.00
2019-06-08T01:56:27.151Z,0.00
2019-06-08T01:57:27.247Z,0.00
2019-06-08T01:58:27.441Z,0.00
2019-06-08T01:59:27.414Z,0.00
2019-06-08T02:00:35.173Z,0.00
2019-06-08T02:01:27.763Z,0.00
2019-06-08T02:02:27.869Z,0.00
2019-06-08T02:03:28.163Z,0.00
2019-06-08T02:04:28.072Z,0.00
2019-06-08T02:05:28.190Z,0.00
2019-06-08T02:06:28.376Z,0.00
2019-06-08T02:07:28.310Z,0.00
2019-06-08T02:08:28.533Z,0.00
2019-06-08T02:09:28.594Z,0.00
2019-06-08T02:10:28.691Z,0.00
2019-06-08T02:11:28.702Z,0.00
2019-06-08T02:12:28.785Z,0.00
2019-06-08T02:13:28.838Z,0.00
2019-06-08T02:14:29.037Z,0.00
2019-06-08T02:15:27.587Z,0.00
2019-06-08T02:16:27.606Z,0.00
2019-06-08T02:17:27.630Z,0.00
2019-06-08T02:18:39.963Z,0.00
2019-06-08T02:19:28.388Z,0.00
2019-06-08T02:20:28.693Z,0.00
2019-06-08T02:21:28.759Z,0.00
2019-06-08T02:22:28.786Z,0.00
2019-06-08T02:23:28.849Z,0.00
2019-06-08T02:24:29.137Z,0.00
2019-06-08T02:25:29.251Z,0.00
2019-06-08T02:26:29.179Z,0.00
2019-06-08T02:27:27.857Z,0.00
2019-06-08T02:28:27.875Z,0.00
2019-06-08T02:29:27.898Z,0.00
2019-06-08T02:30:28.274Z,0.00
2019-06-08T02:31:28.094Z,0.00
2019-06-08T02:32:28.508Z,0.00
2019-06-08T02:33:28.343Z,0.00
2019-06-08T02:34:28.319Z,0.00
2019-06-08T02:35:28.067Z,0.00
2019-06-08T02:36:28.772Z,0.00
2019-06-08T02:37:28.685Z,0.00
2019-06-08T02:38:29.782Z,0.00
2019-06-08T02:39:28.507Z,0.00
2019-06-08T02:40:30.045Z,0.00
2019-06-08T02:41:28.980Z,0.00
2019-06-08T02:42:28.361Z,0.00
2019-06-08T02:43:28.992Z,0.00
2019-06-08T02:44:28.756Z,0.00
2019-06-08T02:45:29.640Z,0.00
2019-06-08T02:46:28.994Z,0.00
2019-06-08T02:47:28.503Z,0.00
2019-06-08T02:48:29.492Z,0.00
2019-06-08T02:49:29.087Z,0.00
2019-06-08T02:50:28.511Z,0.00
2019-06-08T02:51:28.753Z,0.00
2019-06-08T02:52:29.874Z,0.00
2019-06-08T02:53:29.593Z,0.00
2019-06-08T02:54:29.986Z,5.63
2019-06-08T02:55:28.759Z,5.63
2019-06-08T02:56:29.735Z,5.63
2019-06-08T02:57:29.131Z,5.63
2019-06-08T02:58:29.297Z,5.63
2019-06-08T02:59:29.284Z,5.63
2019-06-08T03:00:29.260Z,5.63
2019-06-08T03:01:29.541Z,5.63
2019-06-08T03:02:29.677Z,5.63
2019-06-08T03:03:29.523Z,5.63
2019-06-08T03:04:29.856Z,5.63
2019-06-08T03:05:29.729Z,5.63
2019-06-08T03:06:30.164Z,5.63
2019-06-08T03:07:30.338Z,5.63
2019-06-08T03:08:28.769Z,5.63
2019-06-08T03:09:30.328Z,11.25
2019-06-08T03:10:30.707Z,11.25
2019-06-08T03:11:30.382Z,11.25
2019-06-08T03:12:30.918Z,11.25
2019-06-08T03:13:28.880Z,11.25
2019-06-08T03:14:28.905Z,11.25
2019-06-08T03:15:28.921Z,16.88
2019-06-08T03:16:28.945Z,16.88
2019-06-08T03:17:28.967Z,16.88
2019-06-08T03:18:28.990Z,16.88
2019-06-08T03:19:29.013Z,16.88
2019-06-08T03:20:29.034Z,16.88
2019-06-08T03:21:29.057Z,16.88
2019-06-08T03:22:29.079Z,16.88
2019-06-08T03:23:29.103Z,16.88
2019-06-08T03:24:29.122Z,16.88
2019-06-08T03:25:29.145Z,16.88
2019-06-08T03:26:29.169Z,11.25
2019-06-08T03:27:29.190Z,11.25
2019-06-08T03:28:29.210Z,11.25
2019-06-08T03:29:29.236Z,11.25
2019-06-08T03:30:29.257Z,11.25
2019-06-08T03:31:29.303Z,11.25
2019-06-08T03:32:29.301Z,11.25
2019-06-08T03:33:29.324Z,11.25
2019-06-08T03:34:29.348Z,11.25
2019-06-08T03:35:29.367Z,11.25
2019-06-08T03:36:29.388Z,11.25
2019-06-08T03:37:29.410Z,5.63
2019-06-08T03:38:29.430Z,5.63
2019-06-08T03:39:29.462Z,5.63
2019-06-08T03:40:29.478Z,5.63
2019-06-08T03:41:29.500Z,5.63
2019-06-08T03:42:29.522Z,5.63
2019-06-08T03:43:29.541Z,11.25
2019-06-08T03:44:29.564Z,11.25
2019-06-08T03:45:29.586Z,16.88
2019-06-08T03:46:29.610Z,22.50
2019-06-08T03:47:29.631Z,28.13
2019-06-08T03:48:29.651Z,39.38
2019-06-08T03:49:41.065Z,45.00
2019-06-08T03:50:29.697Z,39.38
2019-06-08T03:51:29.720Z,28.13
2019-06-08T03:52:29.739Z,22.50
2019-06-08T03:53:29.760Z,22.50
2019-06-08T03:54:29.800Z,33.75
2019-06-08T03:55:29.810Z,45.00
2019-06-08T03:56:29.907Z,56.25
2019-06-08T03:57:29.905Z,61.88
2019-06-08T03:58:33.651Z,67.50
2019-06-08T03:59:29.972Z,67.50
2019-06-08T04:00:29.967Z,61.88
2019-06-08T04:01:29.967Z,56.25
2019-06-08T04:02:29.967Z,61.88
2019-06-08T04:03:29.979Z,67.50
2019-06-08T04:04:30.000Z,73.13
2019-06-08T04:05:30.026Z,73.13
2019-06-08T04:06:30.049Z,73.13
2019-06-08T04:07:30.070Z,67.50
2019-06-08T04:08:30.087Z,67.50
2019-06-08T04:09:30.108Z,61.88
2019-06-08T04:10:30.132Z,61.88
2019-06-08T04:11:30.151Z,67.50
2019-06-08T04:12:30.173Z,61.88
2019-06-08T04:13:30.194Z,56.25
2019-06-08T04:14:30.220Z,56.25
2019-06-08T04:15:30.237Z,50.63
2019-06-08T04:16:30.271Z,56.25
2019-06-08T04:17:30.280Z,67.50
2019-06-08T04:18:30.307Z,90.00
2019-06-08T04:19:30.323Z,106.88
2019-06-08T04:20:30.344Z,112.50
2019-06-08T04:21:30.367Z,112.50
2019-06-08T04:22:30.398Z,101.25
2019-06-08T04:23:30.411Z,95.63
2019-06-08T04:24:30.431Z,101.25
2019-06-08T04:25:30.452Z,118.13
2019-06-08T04:26:30.479Z,129.38
2019-06-08T04:27:30.494Z,140.63
2019-06-08T04:28:30.517Z,146.25
2019-06-08T04:29:30.539Z,151.88
2019-06-08T04:30:30.561Z,157.50
2019-06-08T04:31:30.582Z,163.13
2019-06-08T04:32:30.604Z,163.13
2019-06-08T04:33:30.634Z,168.75
2019-06-08T04:34:30.646Z,180.00
2019-06-08T04:35:30.672Z,185.63
2019-06-08T04:36:30.688Z,191.25
2019-06-08T04:37:30.712Z,191.25
2019-06-08T04:38:30.731Z,191.25
2019-06-08T04:39:30.756Z,185.63
2019-06-08T04:40:30.775Z,174.38
2019-06-08T04:41:30.795Z,163.13
2019-06-08T04:42:30.821Z,151.88
2019-06-08T04:43:30.841Z,151.88
2019-06-08T04:44:30.863Z,168.75
2019-06-08T04:45:30.910Z,180.00
2019-06-08T04:46:30.905Z,191.25
2019-06-08T04:47:30.934Z,196.88
2019-06-08T04:48:30.947Z,202.50
2019-06-08T04:49:30.978Z,196.88
2019-06-08T04:50:30.994Z,202.50
2019-06-08T04:51:31.026Z,208.13
2019-06-08T04:52:31.057Z,219.38
2019-06-08T04:53:31.062Z,253.13
2019-06-08T04:54:31.083Z,286.88
2019-06-08T04:55:31.194Z,309.38
2019-06-08T04:56:31.127Z,331.88
2019-06-08T04:57:31.146Z,360.00
2019-06-08T04:58:31.173Z,365.63
2019-06-08T04:59:31.191Z,360.00
2019-06-08T05:00:31.473Z,337.50
2019-06-08T05:01:31.239Z,309.38
2019-06-08T05:02:31.257Z,303.75
2019-06-08T05:03:31.280Z,303.75
2019-06-08T05:04:31.301Z,326.25
2019-06-08T05:05:31.323Z,331.88
2019-06-08T05:06:31.345Z,331.88
2019-06-08T05:07:31.367Z,343.13
2019-06-08T05:08:31.391Z,337.50
2019-06-08T05:09:31.410Z,309.38
2019-06-08T05:10:31.433Z,281.25
2019-06-08T05:11:31.455Z,247.50
2019-06-08T05:12:31.477Z,236.25
2019-06-08T05:13:31.503Z,241.88
2019-06-08T05:14:31.526Z,258.75
2019-06-08T05:15:31.544Z,264.38
2019-06-08T05:16:31.564Z,258.75
2019-06-08T05:17:31.592Z,264.38
2019-06-08T05:18:31.612Z,264.38
2019-06-08T05:19:32.118Z,258.75
2019-06-08T05:20:38.933Z,253.13
2019-06-08T05:21:31.678Z,258.75
2019-06-08T05:22:31.714Z,247.50
2019-06-08T05:23:31.801Z,241.88
2019-06-08T05:24:31.797Z,241.88
2019-06-08T05:25:31.794Z,337.50
2019-06-08T05:26:31.853Z,253.13
2019-06-08T05:27:31.855Z,399.38
2019-06-08T05:28:31.863Z,511.88
2019-06-08T05:29:31.853Z,585.00
2019-06-08T05:30:31.883Z,624.38
2019-06-08T05:31:31.898Z,568.13
2019-06-08T05:32:31.940Z,461.25
2019-06-08T05:33:31.965Z,331.88
2019-06-08T05:34:32.007Z,326.25
2019-06-08T05:35:31.989Z,376.88
2019-06-08T05:36:32.009Z,320.63
2019-06-08T05:37:32.047Z,303.75
2019-06-08T05:38:32.078Z,292.50
2019-06-08T05:39:32.079Z,281.25
2019-06-08T05:40:32.099Z,275.63
2019-06-08T05:41:32.122Z,281.25
2019-06-08T05:42:32.145Z,281.25
2019-06-08T05:43:32.170Z,292.50
2019-06-08T05:44:32.190Z,286.88
2019-06-08T05:45:32.212Z,315.00
2019-06-08T05:46:32.234Z,309.38
2019-06-08T05:47:32.258Z,298.13
2019-06-08T05:48:32.278Z,298.13
2019-06-08T05:49:32.301Z,303.75
2019-06-08T05:50:32.323Z,298.13
2019-06-08T05:51:32.348Z,320.63
2019-06-08T05:52:32.368Z,303.75
2019-06-08T05:53:32.401Z,303.75
2019-06-08T05:54:32.412Z,309.38
2019-06-08T05:55:32.436Z,331.88
2019-06-08T05:56:32.457Z,365.63
2019-06-08T05:57:32.479Z,337.50
2019-06-08T05:58:32.502Z,354.38
2019-06-08T05:59:32.526Z,343.13
2019-06-08T06:00:32.559Z,337.50
2019-06-08T06:01:32.569Z,376.88
2019-06-08T06:02:32.590Z,354.38
2019-06-08T06:03:32.613Z,354.38
2019-06-08T06:04:32.635Z,388.13
2019-06-08T06:05:32.660Z,360.00
2019-06-08T06:06:32.679Z,421.88
2019-06-08T06:07:32.700Z,405.00
2019-06-08T06:08:32.726Z,461.25
2019-06-08T06:09:32.745Z,500.63
2019-06-08T06:10:32.771Z,528.75
2019-06-08T06:11:32.793Z,635.63
2019-06-08T06:12:32.812Z,669.38
2019-06-08T06:13:32.834Z,905.63
2019-06-08T06:14:32.856Z,1181.25
2019-06-08T06:15:32.879Z,1833.75
2019-06-08T06:16:32.898Z,1237.50
2019-06-08T06:17:32.926Z,1704.38
2019-06-08T06:18:32.946Z,973.13
2019-06-08T06:19:32.971Z,1355.63
2019-06-08T06:20:32.993Z,1012.50
2019-06-08T06:21:33.017Z,1597.50
2019-06-08T06:22:33.042Z,1310.63
2019-06-08T06:23:33.065Z,956.25
2019-06-08T06:24:33.087Z,810.00
2019-06-08T06:25:33.110Z,686.25
2019-06-08T06:26:33.133Z,624.38
2019-06-08T06:27:33.162Z,585.00
2019-06-08T06:28:33.183Z,568.13
2019-06-08T06:29:33.213Z,540.00
2019-06-08T06:30:33.231Z,556.88
2019-06-08T06:31:33.257Z,478.13
2019-06-08T06:32:33.279Z,472.50
2019-06-08T06:33:33.308Z,433.13
2019-06-08T06:34:33.331Z,427.50
2019-06-08T06:35:33.351Z,433.13
2019-06-08T06:36:33.379Z,466.88
2019-06-08T06:37:33.411Z,590.63
2019-06-08T06:38:33.446Z,2373.75
2019-06-08T06:39:33.450Z,1198.13
2019-06-08T06:40:33.472Z,2255.63
2019-06-08T06:41:33.497Z,1209.38
2019-06-08T06:42:33.523Z,1001.25
2019-06-08T06:43:33.554Z,2300.63
2019-06-08T06:44:33.570Z,1091.25
2019-06-08T06:45:33.596Z,945.00
2019-06-08T06:46:33.697Z,1681.88
2019-06-08T06:47:33.702Z,866.25
2019-06-08T06:48:33.699Z,2216.25
2019-06-08T06:49:33.751Z,1130.63
2019-06-08T06:50:33.780Z,2677.50
2019-06-08T06:51:34.057Z,1074.38
2019-06-08T06:52:33.776Z,1035.00
2019-06-08T06:53:33.800Z,1029.38
2019-06-08T06:54:33.825Z,1153.13
2019-06-08T06:55:33.857Z,2795.63
2019-06-08T06:56:33.884Z,1231.88
2019-06-08T06:57:36.245Z,1012.50
2019-06-08T06:58:33.934Z,922.50
2019-06-08T06:59:33.962Z,765.00
2019-06-08T07:00:33.987Z,787.50
2019-06-08T07:01:34.013Z,838.13
2019-06-08T07:02:34.041Z,849.38
2019-06-08T07:03:34.067Z,804.38
2019-06-08T07:04:34.091Z,748.13
2019-06-08T07:05:34.175Z,1546.88
2019-06-08T07:06:34.148Z,686.25
2019-06-08T07:07:34.175Z,675.00
2019-06-08T07:08:34.200Z,669.38
2019-06-08T07:09:34.245Z,675.00
2019-06-08T07:10:34.261Z,703.13
2019-06-08T07:11:34.280Z,765.00
2019-06-08T07:12:34.310Z,826.88
2019-06-08T07:13:34.332Z,866.25
2019-06-08T07:14:34.362Z,900.00
2019-06-08T07:15:41.444Z,911.25
2019-06-08T07:16:34.411Z,877.50
2019-06-08T07:17:34.436Z,843.75
2019-06-08T07:18:34.463Z,866.25
2019-06-08T07:19:34.497Z,855.00
2019-06-08T07:20:34.513Z,883.13
2019-06-08T07:21:41.676Z,945.00
2019-06-08T07:22:34.566Z,1170.00
2019-06-08T07:23:34.609Z,1344.38
2019-06-08T07:24:34.618Z,1175.63
2019-06-08T07:25:34.642Z,1130.63
2019-06-08T07:26:34.671Z,1102.50
2019-06-08T07:27:34.696Z,1046.25
2019-06-08T07:28:34.723Z,1046.25
2019-06-08T07:29:34.748Z,1023.75
2019-06-08T07:30:34.778Z,1018.13
2019-06-08T07:31:34.800Z,1006.88
2019-06-08T07:32:34.828Z,956.25
2019-06-08T07:33:34.864Z,900.00
2019-06-08T07:34:34.876Z,843.75
2019-06-08T07:35:34.904Z,781.88
2019-06-08T07:36:34.929Z,708.75
2019-06-08T07:37:34.966Z,630.00
2019-06-08T07:38:34.986Z,556.88
2019-06-08T07:39:35.010Z,495.00
2019-06-08T07:40:35.037Z,461.25
2019-06-08T07:41:35.064Z,450.00
2019-06-08T07:42:35.087Z,455.63
2019-06-08T07:43:35.113Z,450.00
2019-06-08T07:44:35.139Z,466.88
2019-06-08T07:45:35.162Z,461.25
2019-06-08T07:46:35.190Z,444.38
2019-06-08T07:47:35.215Z,421.88
2019-06-08T07:48:35.241Z,399.38
2019-06-08T07:49:35.266Z,393.75
2019-06-08T07:50:35.292Z,382.50
2019-06-08T07:51:35.317Z,382.50
2019-06-08T07:52:35.344Z,382.50
2019-06-08T07:53:35.369Z,382.50
2019-06-08T07:54:35.392Z,382.50
2019-06-08T07:55:35.488Z,382.50
2019-06-08T07:56:35.438Z,393.75
2019-06-08T07:57:35.464Z,399.38
2019-06-08T07:58:35.492Z,427.50
2019-06-08T07:59:35.602Z,483.75
2019-06-08T08:00:35.608Z,551.25
2019-06-08T08:01:36.637Z,624.38
2019-06-08T08:02:35.669Z,641.25
2019-06-08T08:03:35.667Z,624.38
2019-06-08T08:04:35.671Z,590.63
2019-06-08T08:05:35.669Z,562.50
2019-06-08T08:06:35.685Z,573.75
2019-06-08T08:07:35.716Z,613.13
2019-06-08T08:08:35.734Z,641.25
2019-06-08T08:09:35.758Z,618.75
2019-06-08T08:10:35.782Z,579.38
2019-06-08T08:11:35.808Z,545.63
2019-06-08T08:12:35.830Z,523.13
2019-06-08T08:13:35.853Z,483.75
2019-06-08T08:14:35.879Z,450.00
2019-06-08T08:15:35.903Z,393.75
2019-06-08T08:16:35.926Z,348.75
2019-06-08T08:17:35.951Z,309.38
2019-06-08T08:18:35.976Z,303.75
2019-06-08T08:19:35.999Z,309.38
2019-06-08T08:20:36.023Z,315.00
2019-06-08T08:21:37.915Z,303.75
2019-06-08T08:22:38.013Z,303.75
2019-06-08T08:23:38.141Z,320.63
2019-06-08T08:24:38.489Z,371.25
2019-06-08T08:25:37.877Z,405.00
2019-06-08T08:26:38.937Z,444.38
2019-06-08T08:27:37.540Z,500.63
2019-06-08T08:28:37.483Z,528.75
2019-06-08T08:29:38.247Z,551.25
2019-06-08T08:30:37.721Z,579.38
2019-06-08T08:31:37.377Z,630.00
2019-06-08T08:32:38.058Z,663.75
2019-06-08T08:33:37.959Z,646.88
2019-06-08T08:34:38.247Z,641.25
2019-06-08T08:35:38.100Z,669.38
2019-06-08T08:36:38.067Z,708.75
2019-06-08T08:37:38.050Z,714.38
2019-06-08T08:38:38.095Z,686.25
2019-06-08T08:39:37.722Z,635.63
2019-06-08T08:40:38.597Z,568.13
2019-06-08T08:41:38.794Z,506.25
2019-06-08T08:42:38.601Z,466.88
2019-06-08T08:43:37.728Z,450.00
2019-06-08T08:44:37.982Z,433.13
2019-06-08T08:45:37.334Z,421.88
2019-06-08T08:46:38.707Z,416.25
2019-06-08T08:47:38.816Z,410.63
2019-06-08T08:48:37.735Z,393.75
2019-06-08T08:49:38.094Z,337.50
2019-06-08T08:50:38.289Z,292.50
2019-06-08T08:51:37.800Z,270.00
2019-06-08T08:52:40.351Z,275.63
2019-06-08T08:53:37.491Z,298.13
2019-06-08T08:54:37.738Z,320.63
2019-06-08T08:55:37.961Z,348.75
2019-06-08T08:56:38.409Z,410.63
2019-06-08T08:57:38.614Z,478.13
2019-06-08T08:58:38.098Z,500.63
2019-06-08T08:59:38.207Z,489.38
2019-06-08T09:00:38.218Z,466.88
2019-06-08T09:01:38.295Z,472.50
2019-06-08T09:02:37.436Z,489.38
2019-06-08T09:03:39.331Z,506.25
2019-06-08T09:04:38.089Z,528.75
2019-06-08T09:05:38.203Z,528.75
2019-06-08T09:06:38.085Z,534.38
2019-06-08T09:07:38.452Z,534.38
2019-06-08T09:08:37.733Z,523.13
2019-06-08T09:09:38.745Z,511.88
2019-06-08T09:10:38.264Z,511.88
2019-06-08T09:11:40.808Z,545.63
2019-06-08T09:12:37.671Z,579.38
2019-06-08T09:13:37.727Z,596.25
2019-06-08T09:14:38.699Z,613.13
2019-06-08T09:15:37.840Z,613.13
2019-06-08T09:16:38.382Z,601.88
2019-06-08T09:17:38.819Z,573.75
2019-06-08T09:18:37.605Z,540.00
2019-06-08T09:19:38.254Z,528.75
2019-06-08T09:20:38.027Z,534.38
2019-06-08T09:21:38.348Z,545.63
2019-06-08T09:22:50.189Z,562.50
2019-06-08T09:23:37.822Z,585.00
2019-06-08T09:24:39.046Z,596.25
2019-06-08T09:25:40.244Z,613.13
2019-06-08T09:26:38.253Z,635.63
2019-06-08T09:27:38.289Z,680.63
2019-06-08T09:28:38.824Z,748.13
2019-06-08T09:29:38.858Z,866.25
2019-06-08T09:30:38.490Z,1046.25
2019-06-08T09:31:39.060Z,1681.88
2019-06-08T09:32:38.215Z,1085.63
2019-06-08T09:33:38.839Z,1051.88
2019-06-08T09:34:38.543Z,1080.00
2019-06-08T09:35:37.936Z,1175.63
2019-06-08T09:36:40.682Z,1164.38
2019-06-08T09:37:37.949Z,1141.88
2019-06-08T09:38:38.668Z,1091.25
2019-06-08T09:39:38.592Z,1068.75
2019-06-08T09:40:38.567Z,1006.88
2019-06-08T09:41:38.048Z,905.63
2019-06-08T09:42:37.975Z,826.88
2019-06-08T09:43:38.817Z,770.63
2019-06-08T09:44:38.046Z,742.50
2019-06-08T09:45:38.222Z,708.75
2019-06-08T09:46:38.515Z,691.88
2019-06-08T09:47:38.243Z,663.75
2019-06-08T09:48:38.279Z,652.50
2019-06-08T09:49:38.213Z,697.50
2019-06-08T09:50:38.583Z,787.50
2019-06-08T09:51:38.203Z,855.00
2019-06-08T09:52:40.945Z,888.75
2019-06-08T09:53:41.451Z,860.63
2019-06-08T09:54:38.576Z,770.63
2019-06-08T09:55:41.134Z,708.75
2019-06-08T09:56:38.320Z,675.00
2019-06-08T09:57:38.592Z,646.88
2019-06-08T09:58:39.179Z,635.63
2019-06-08T09:59:38.652Z,669.38
2019-06-08T10:00:38.451Z,742.50
2019-06-08T10:01:38.542Z,843.75
2019-06-08T10:02:38.481Z,871.88
2019-06-08T10:03:39.119Z,888.75
2019-06-08T10:04:38.803Z,933.75
2019-06-08T10:05:38.897Z,1035.00
2019-06-08T10:06:40.631Z,1029.38
2019-06-08T10:07:38.958Z,1068.75
2019-06-08T10:08:38.882Z,1479.38
2019-06-08T10:09:38.649Z,1383.75
2019-06-08T10:10:38.670Z,1344.38
2019-06-08T10:11:38.686Z,1411.88
2019-06-08T10:12:41.077Z,1338.75
2019-06-08T10:13:39.785Z,1164.38
2019-06-08T10:14:38.781Z,990.00
2019-06-08T10:15:38.835Z,866.25
2019-06-08T10:16:38.811Z,770.63
2019-06-08T10:17:38.845Z,691.88
2019-06-08T10:18:38.861Z,641.25
2019-06-08T10:19:38.887Z,652.50
2019-06-08T10:20:38.909Z,680.63
2019-06-08T10:21:42.741Z,669.38
2019-06-08T10:22:39.001Z,652.50
2019-06-08T10:23:41.732Z,624.38
2019-06-08T10:24:41.428Z,630.00
2019-06-08T10:25:39.053Z,658.13
2019-06-08T10:26:39.069Z,680.63
2019-06-08T10:27:39.090Z,691.88
2019-06-08T10:28:39.179Z,675.00
2019-06-08T10:29:39.142Z,652.50
2019-06-08T10:30:39.189Z,652.50
2019-06-08T10:31:43.302Z,708.75
2019-06-08T10:32:39.217Z,832.50
2019-06-08T10:33:40.553Z,939.38
2019-06-08T10:34:39.261Z,1001.25
2019-06-08T10:35:39.287Z,1125.00
2019-06-08T10:36:39.310Z,1321.88
2019-06-08T10:37:39.424Z,1265.63
2019-06-08T10:38:41.220Z,1192.50
2019-06-08T10:39:39.428Z,1170.00
2019-06-08T10:40:39.470Z,1153.13
2019-06-08T10:41:39.471Z,1186.88
2019-06-08T10:42:40.227Z,1299.38
2019-06-08T10:43:39.516Z,1355.63
2019-06-08T10:44:39.509Z,1473.75
2019-06-08T10:45:39.538Z,1366.88
2019-06-08T10:46:40.587Z,1327.50
2019-06-08T10:47:39.585Z,1980.00
2019-06-08T10:48:39.608Z,2210.63
2019-06-08T10:49:39.635Z,5056.88
2019-06-08T10:50:39.664Z,2311.88
2019-06-08T10:51:40.947Z,1440.00
2019-06-08T10:52:39.719Z,1586.25
2019-06-08T10:53:48.430Z,1462.50
2019-06-08T10:54:39.766Z,1755.00
2019-06-08T10:55:40.848Z,2750.63
2019-06-08T10:56:39.819Z,1811.25
2019-06-08T10:57:39.846Z,1743.75
2019-06-08T10:58:39.874Z,3166.88
2019-06-08T10:59:40.272Z,3853.13
2019-06-08T11:00:39.929Z,4258.13
2019-06-08T11:01:39.958Z,4606.88
2019-06-08T11:02:40.711Z,4567.50
2019-06-08T11:03:40.013Z,4545.00
2019-06-08T11:04:43.211Z,4370.63
2019-06-08T11:05:40.070Z,4269.38
2019-06-08T11:06:40.334Z,4308.75
2019-06-08T11:07:40.151Z,4359.38
2019-06-08T11:08:40.164Z,4460.63
2019-06-08T11:09:40.199Z,4398.75
2019-06-08T11:10:40.225Z,2868.75
2019-06-08T11:11:40.265Z,4348.13
2019-06-08T11:12:40.297Z,2604.38
2019-06-08T11:13:40.330Z,4545.00
2019-06-08T11:14:40.817Z,4590.00
2019-06-08T11:15:40.390Z,4016.25
2019-06-08T11:16:40.426Z,3780.00
2019-06-08T11:17:40.455Z,1951.88
2019-06-08T11:18:40.488Z,3470.63
2019-06-08T11:19:40.528Z,3729.38
2019-06-08T11:20:40.562Z,1068.75
2019-06-08T11:21:40.590Z,1141.88
2019-06-08T11:22:40.626Z,1468.13
2019-06-08T11:23:41.708Z,1732.50
2019-06-08T11:24:40.754Z,1743.75
2019-06-08T11:25:40.724Z,2103.75
2019-06-08T11:26:40.759Z,2210.63
2019-06-08T11:27:40.795Z,1704.38
2019-06-08T11:28:40.833Z,1884.38
2019-06-08T11:29:40.856Z,1738.13
2019-06-08T11:30:40.889Z,2418.75
2019-06-08T11:31:40.922Z,2761.88
2019-06-08T11:32:40.959Z,4528.13
2019-06-08T11:33:40.988Z,3796.88
2019-06-08T11:34:41.018Z,2835.00
2019-06-08T11:35:41.053Z,3515.63
2019-06-08T11:36:41.083Z,3318.75
2019-06-08T11:37:41.229Z,3346.88
2019-06-08T11:38:41.160Z,3397.50
2019-06-08T11:39:41.181Z,3228.75
2019-06-08T11:40:41.213Z,2913.75
2019-06-08T11:41:41.258Z,2908.13
2019-06-08T11:42:41.358Z,2941.88
2019-06-08T11:43:41.404Z,2790.00
2019-06-08T11:44:41.399Z,2964.38
2019-06-08T11:45:41.406Z,2902.50
2019-06-08T11:46:42.702Z,2688.75
2019-06-08T11:47:41.469Z,1631.25
2019-06-08T11:48:41.725Z,1676.25
2019-06-08T11:49:41.531Z,2244.38
2019-06-08T11:50:42.084Z,2874.38
2019-06-08T11:51:41.605Z,2812.50
2019-06-08T11:52:41.637Z,2266.88
2019-06-08T11:53:41.711Z,1800.00
2019-06-08T11:54:41.703Z,1293.75
2019-06-08T11:55:41.737Z,2025.00
2019-06-08T11:56:41.771Z,1501.88
2019-06-08T11:57:41.803Z,1383.75
2019-06-08T11:58:41.838Z,1361.25
2019-06-08T11:59:41.872Z,1513.13
2019-06-08T12:00:41.904Z,1490.63
2019-06-08T12:01:41.939Z,1861.88
2019-06-08T12:02:41.970Z,2030.63
2019-06-08T12:03:42.006Z,2053.13
2019-06-08T12:04:42.036Z,2098.13
2019-06-08T12:05:42.069Z,1850.63
2019-06-08T12:06:42.111Z,1580.63
2019-06-08T12:07:42.133Z,1440.00
2019-06-08T12:08:42.166Z,1479.38
2019-06-08T12:09:42.199Z,1693.13
2019-06-08T12:10:42.230Z,1715.63
2019-06-08T12:11:42.264Z,1580.63
2019-06-08T12:12:42.321Z,1546.88
2019-06-08T12:13:42.324Z,2019.38
2019-06-08T12:14:42.354Z,3054.38
2019-06-08T12:15:42.387Z,3307.50
2019-06-08T12:16:42.417Z,1991.25
2019-06-08T12:17:42.449Z,2002.50
2019-06-08T12:18:42.479Z,3470.63
2019-06-08T12:19:42.510Z,3847.50
2019-06-08T12:20:42.540Z,3178.13
2019-06-08T12:21:42.573Z,5973.75
2019-06-08T12:22:42.605Z,6609.38
2019-06-08T12:23:42.635Z,7374.38
2019-06-08T12:24:42.810Z,5681.25
2019-06-08T12:25:42.696Z,5236.88
2019-06-08T12:26:42.728Z,4944.38
2019-06-08T12:27:42.779Z,4837.50
2019-06-08T12:28:42.793Z,4781.25
2019-06-08T12:29:42.825Z,3898.13
2019-06-08T12:30:42.859Z,4668.75
2019-06-08T12:31:42.892Z,4539.38
2019-06-08T12:32:42.926Z,4696.88
2019-06-08T12:33:42.957Z,4719.38
2019-06-08T12:34:42.989Z,4831.88
2019-06-08T12:35:43.025Z,5028.75
2019-06-08T12:36:43.062Z,4837.50
2019-06-08T12:37:43.095Z,945.00